Time;durP1;ratioP1;P1;durP2;ratioP2;P2;SDS_P1;SDS_P2;PMS_P1;PMS_P2;Temp;Humidity;BMP_temperature;BMP_pressure;BME280_temperature;BME280_humidity;BME280_pressure;Samples;Min_cycle;Max_cycle;Signal;HPM_P1;HPM_P2
2021/11/10 00:00:16;;;;;;;9.20;5.93;;;;;;;4.36;100.00;94690.06;5099997;28;20048;-78
2021/11/10 00:02:43;;;;;;;9.20;6.70;;;;;;;4.36;100.00;94680.66;5099915;28;20048;-78
2021/11/10 00:05:11;;;;;;;9.90;6.53;;;;;;;4.24;100.00;94677.47;5100208;28;20043;-80
2021/11/10 00:07:38;;;;;;;12.20;7.38;;;;;;;4.42;100.00;94697.16;5099251;28;20062;-79
2021/11/10 00:10:06;;;;;;;10.07;6.80;;;;;;;4.14;100.00;94666.50;5099560;28;20486;-79
2021/11/10 00:12:33;;;;;;;10.93;6.10;;;;;;;4.35;100.00;94704.50;5099924;28;20043;-79
2021/11/10 00:15:01;;;;;;;7.80;5.75;;;;;;;4.34;100.00;94692.72;5099827;28;20506;-79
2021/11/10 00:17:28;;;;;;;9.93;7.30;;;;;;;3.96;100.00;94700.22;5099769;28;20039;-80
2021/11/10 00:19:55;;;;;;;10.07;7.15;;;;;;;4.10;100.00;94700.75;5099647;28;20179;-80
2021/11/10 00:22:22;;;;;;;12.63;8.15;;;;;;;4.11;100.00;94709.97;5099742;28;20158;-80
2021/11/10 00:24:49;;;;;;;12.05;8.35;;;;;;;4.13;100.00;94705.59;5099281;28;20047;-80
2021/11/10 00:27:16;;;;;;;13.98;8.57;;;;;;;4.07;100.00;94698.47;5099414;28;20039;-80
2021/11/10 00:29:43;;;;;;;13.30;8.18;;;;;;;4.14;100.00;94708.00;5099174;28;20047;-80
2021/11/10 00:32:11;;;;;;;11.52;7.93;;;;;;;4.17;100.00;94706.91;5099462;28;20110;-80
2021/11/10 00:34:38;;;;;;;12.35;7.90;;;;;;;4.03;100.00;94697.13;5099190;28;20407;-80
2021/11/10 00:37:05;;;;;;;9.45;6.07;;;;;;;3.83;100.00;94685.19;5099698;28;20035;-79
2021/11/10 00:39:32;;;;;;;11.20;8.13;;;;;;;3.87;100.00;94703.53;5099168;28;20044;-79
2021/11/10 00:41:59;;;;;;;15.32;8.77;;;;;;;3.89;100.00;94701.66;5098917;28;20047;-79
2021/11/10 00:44:26;;;;;;;12.13;7.40;;;;;;;3.67;100.00;94684.88;5098880;28;20044;-79
2021/11/10 00:46:53;;;;;;;12.38;8.20;;;;;;;3.64;100.00;94697.84;5098958;28;20059;-80
2021/11/10 00:49:21;;;;;;;26.05;15.82;;;;;;;3.52;100.00;94699.69;5098960;28;20483;-80
2021/11/10 00:51:49;;;;;;;117.93;62.08;;;;;;;3.46;100.00;94693.38;5099035;28;20418;-80
2021/11/10 00:54:16;;;;;;;269.90;132.70;;;;;;;3.19;100.00;94670.16;5074845;28;20051;-80
2021/11/10 00:56:42;;;;;;;73.40;40.13;;;;;;;3.37;100.00;94694.16;5098864;28;20060;-81
2021/11/10 00:59:09;;;;;;;45.80;25.17;;;;;;;3.40;100.00;94697.25;5099346;28;20097;-79
2021/11/10 01:01:36;;;;;;;42.90;24.13;;;;;;;3.41;100.00;94686.16;5099234;28;20048;-79
2021/11/10 01:04:03;;;;;;;23.95;14.98;;;;;;;3.46;100.00;94706.09;5098843;28;20047;-78
2021/11/10 01:06:34;;;;;;;18.15;11.13;;;;;;;3.32;100.00;94692.00;5099261;28;20125;-78
2021/11/10 01:09:01;;;;;;;19.13;10.80;;;;;;;3.23;100.00;94677.53;5099064;28;20403;-79
2021/11/10 01:11:28;;;;;;;16.90;10.43;;;;;;;3.31;100.00;94700.56;5099098;28;20078;-79
2021/11/10 01:13:54;;;;;;;15.55;9.43;;;;;;;3.19;100.00;94700.63;5098556;28;20499;-79
2021/11/10 01:16:21;;;;;;;14.60;8.70;;;;;;;3.32;100.00;94704.69;5098685;28;20044;-79
2021/11/10 01:18:48;;;;;;;11.73;8.02;;;;;;;3.29;100.00;94704.97;5098197;28;20052;-79
2021/11/10 01:21:16;;;;;;;12.27;8.20;;;;;;;2.90;100.00;94677.63;5099133;28;20536;-79
2021/11/10 01:23:44;;;;;;;13.40;9.18;;;;;;;2.90;100.00;94718.25;5095845;28;20100;-79
2021/11/10 01:26:11;;;;;;;18.63;11.95;;;;;;;2.78;100.00;94707.38;5098605;28;20048;-79
2021/11/10 01:28:38;;;;;;;22.00;13.38;;;;;;;2.89;100.00;94714.09;5099254;28;20039;-79
2021/11/10 01:31:05;;;;;;;17.77;10.63;;;;;;;3.04;100.00;94719.66;5098423;28;20040;-79
2021/11/10 01:33:32;;;;;;;14.50;9.95;;;;;;;3.18;100.00;94718.53;5099395;28;20052;-79
2021/11/10 01:35:59;;;;;;;14.15;9.48;;;;;;;3.22;100.00;94719.91;5098756;28;20392;-79
2021/11/10 01:38:25;;;;;;;16.38;10.10;;;;;;;3.26;100.00;94715.38;5098143;28;20043;-79
2021/11/10 01:40:54;;;;;;;18.35;11.43;;;;;;;3.18;100.00;94709.19;5098936;28;20047;-79
2021/11/10 01:43:21;;;;;;;21.73;12.77;;;;;;;3.06;100.00;94712.75;5098304;28;20057;-79
2021/11/10 01:45:48;;;;;;;15.55;10.63;;;;;;;2.92;100.00;94703.72;5098451;28;20059;-79
2021/11/10 01:48:15;;;;;;;15.93;10.88;;;;;;;3.05;100.00;94709.38;5098660;28;20055;-79
2021/11/10 01:50:42;;;;;;;17.85;11.57;;;;;;;3.09;100.00;94706.63;5098989;28;20051;-79
2021/11/10 01:53:11;;;;;;;16.73;11.77;;;;;;;3.03;100.00;94706.19;5101354;28;20077;-80
2021/11/10 01:55:38;;;;;;;17.88;11.43;;;;;;;3.07;100.00;94711.81;5102457;28;20051;-80
2021/11/10 01:58:06;;;;;;;14.80;10.70;;;;;;;3.05;100.00;94711.94;5100463;28;20460;-80
2021/11/10 02:00:37;;;;;;;14.43;9.93;;;;;;;2.97;100.00;94699.06;5102358;28;20047;-80
2021/11/10 02:03:04;;;;;;;14.18;9.55;;;;;;;2.98;100.00;94697.31;5096738;28;20105;-80
2021/11/10 02:05:31;;;;;;;11.98;8.52;;;;;;;3.04;100.00;94717.13;5096690;28;20118;-80
2021/11/10 02:07:58;;;;;;;12.95;8.85;;;;;;;2.98;100.00;94720.16;5110436;28;20402;-80
2021/11/10 02:10:26;;;;;;;11.50;8.32;;;;;;;3.01;100.00;94723.25;5112030;28;20051;-80
2021/11/10 02:12:53;;;;;;;13.70;8.70;;;;;;;2.99;100.00;94720.06;5111442;28;20395;-79
2021/11/10 02:15:22;;;;;;;12.55;8.25;;;;;;;2.96;100.00;94722.03;5112772;28;20460;-80
2021/11/10 02:17:49;;;;;;;12.57;8.48;;;;;;;2.90;100.00;94721.59;5112537;28;20040;-79
2021/11/10 02:20:17;;;;;;;11.68;8.70;;;;;;;2.90;100.00;94716.53;5113209;28;20059;-79
2021/11/10 02:22:47;;;;;;;11.88;8.40;;;;;;;2.94;100.00;94720.44;5112209;28;20444;-79
2021/11/10 02:25:14;;;;;;;13.30;7.80;;;;;;;2.96;100.00;94715.22;5112408;28;20047;-79
2021/11/10 02:27:42;;;;;;;12.00;8.18;;;;;;;2.99;100.00;94717.50;5112466;28;20050;-79
2021/11/10 02:30:13;;;;;;;11.75;7.13;;;;;;;2.74;100.00;94675.56;5112516;28;20097;-79
2021/11/10 02:32:41;;;;;;;11.98;8.48;;;;;;;2.84;100.00;94708.59;5112365;28;20395;-79
2021/11/10 02:35:08;;;;;;;13.30;8.48;;;;;;;2.92;100.00;94716.41;5112599;28;20456;-79
2021/11/10 02:37:35;;;;;;;13.05;8.38;;;;;;;3.01;100.00;94727.53;5112431;28;20547;-79
2021/11/10 02:40:04;;;;;;;13.70;8.98;;;;;;;3.07;100.00;94729.59;5112409;28;20055;-79
2021/11/10 02:42:31;;;;;;;13.32;8.68;;;;;;;3.05;100.00;94719.53;5112416;28;20446;-79
2021/11/10 02:44:58;;;;;;;14.43;9.18;;;;;;;3.12;100.00;94729.19;5112631;28;20051;-79
2021/11/10 02:47:25;;;;;;;16.23;10.43;;;;;;;3.06;100.00;94723.69;5112231;28;20052;-79
2021/11/10 02:49:52;;;;;;;17.33;10.38;;;;;;;3.00;100.00;94728.47;5112676;28;20108;-79
2021/11/10 02:52:20;;;;;;;16.42;10.48;;;;;;;3.00;100.00;94721.66;5112225;28;20047;-79
2021/11/10 02:54:51;;;;;;;16.77;9.95;;;;;;;2.82;100.00;94688.41;5112127;28;20040;-79
2021/11/10 02:57:20;;;;;;;14.98;10.00;;;;;;;3.02;100.00;94729.16;5111686;28;20052;-79
2021/11/10 02:59:47;;;;;;;22.27;10.57;;;;;;;2.97;100.00;94726.19;5112611;28;20048;-80
2021/11/10 03:02:14;;;;;;;14.00;9.50;;;;;;;2.97;100.00;94724.47;5111585;28;20556;-80
2021/11/10 03:04:44;;;;;;;15.43;9.70;;;;;;;2.85;100.00;94708.47;5112109;28;20047;-80
2021/11/10 03:07:11;;;;;;;16.73;9.45;;;;;;;3.00;100.00;94738.63;5111912;28;20048;-80
2021/11/10 03:09:38;;;;;;;13.90;9.90;;;;;;;2.94;100.00;94735.66;5111620;28;20482;-81
2021/11/10 03:12:07;;;;;;;15.20;9.55;;;;;;;2.96;100.00;94734.72;5111495;28;20506;-80
2021/11/10 03:14:38;;;;;;;16.02;9.80;;;;;;;2.77;100.00;94723.50;5111755;28;20044;-79
2021/11/10 03:17:06;;;;;;;16.30;10.13;;;;;;;2.80;100.00;94720.72;5111300;28;20059;-79
2021/11/10 03:19:34;;;;;;;14.57;9.25;;;;;;;2.85;100.00;94735.59;5111627;28;20051;-78
2021/11/10 03:22:01;;;;;;;12.32;8.43;;;;;;;2.84;100.00;94739.88;5111595;28;20043;-78
2021/11/10 03:24:28;;;;;;;12.77;8.88;;;;;;;2.82;100.00;94743.47;5111650;28;20047;-79
2021/11/10 03:26:55;;;;;;;13.95;8.73;;;;;;;2.80;100.00;94741.03;5111576;28;20568;-79
2021/11/10 03:29:23;;;;;;;15.77;8.48;;;;;;;2.77;100.00;94747.16;5111350;28;20509;-79
2021/11/10 03:31:51;;;;;;;29.50;14.75;;;;;;;2.72;100.00;94749.25;5111448;27;20039;-79
2021/11/10 03:34:20;;;;;;;31.58;15.63;;;;;;;2.63;100.00;94747.44;5111027;28;20047;-79
2021/11/10 03:36:48;;;;;;;21.05;11.55;;;;;;;2.62;100.00;94756.00;5110980;28;20054;-79
2021/11/10 03:39:17;;;;;;;18.55;10.35;;;;;;;2.54;100.00;94759.94;5110948;28;20051;-79
2021/11/10 03:41:44;;;;;;;13.07;8.30;;;;;;;2.46;100.00;94767.34;5110564;28;20059;-79
2021/11/10 03:44:11;;;;;;;14.43;8.88;;;;;;;2.37;100.00;94770.63;5111063;28;20415;-79
2021/11/10 03:46:40;;;;;;;13.15;8.55;;;;;;;2.24;100.00;94741.16;5111064;28;20112;-79
2021/11/10 03:49:08;;;;;;;14.02;9.10;;;;;;;2.36;100.00;94769.81;5110927;28;20302;-79
2021/11/10 03:51:35;;;;;;;16.35;10.50;;;;;;;2.19;100.00;94752.56;5110854;28;20047;-78
2021/11/10 03:54:02;;;;;;;17.77;11.25;;;;;;;2.24;100.00;94775.84;5110494;28;20562;-78
2021/11/10 03:56:29;;;;;;;14.27;9.10;;;;;;;2.14;100.00;94773.22;5110462;28;20488;-78
2021/11/10 03:58:56;;;;;;;14.20;9.98;;;;;;;2.00;100.00;94769.22;5110534;28;20052;-79
2021/11/10 04:01:23;;;;;;;14.63;9.80;;;;;;;2.17;100.00;94770.44;5110579;28;20052;-78
2021/11/10 04:03:50;;;;;;;16.42;10.23;;;;;;;2.12;100.00;94758.13;5110707;28;20459;-78
2021/11/10 04:06:19;;;;;;;13.38;9.63;;;;;;;2.19;100.00;94772.84;5110410;28;20048;-78
2021/11/10 04:08:46;;;;;;;11.55;8.02;;;;;;;2.23;100.00;94777.56;5110503;28;20079;-78
2021/11/10 04:11:12;;;;;;;11.68;7.78;;;;;;;2.18;100.00;94771.25;5110616;28;20379;-78
2021/11/10 04:13:39;;;;;;;12.27;9.43;;;;;;;2.17;100.00;94775.50;5110163;28;20100;-78
2021/11/10 04:16:06;;;;;;;13.20;8.07;;;;;;;2.12;100.00;94782.66;5089693;28;20407;-78
2021/11/10 04:18:34;;;;;;;12.70;9.40;;;;;;;2.09;100.00;94775.31;5088237;28;20047;-78
2021/11/10 04:21:01;;;;;;;16.73;10.85;;;;;;;2.07;100.00;94780.47;5089926;28;20134;-78
2021/11/10 04:23:30;;;;;;;15.07;10.38;;;;;;;1.96;100.00;94767.84;5089924;28;20093;-78
2021/11/10 04:25:59;;;;;;;16.85;10.85;;;;;;;1.95;100.00;94779.69;5089607;28;20503;-78
2021/11/10 04:28:27;;;;;;;21.52;14.77;;;;;;;2.00;100.00;94774.28;5089462;28;20046;-78
2021/11/10 04:30:54;;;;;;;30.20;16.45;;;;;;;1.90;100.00;94755.63;5089889;28;20114;-79
2021/11/10 04:33:21;;;;;;;18.10;12.15;;;;;;;1.86;100.00;94758.38;5089465;28;20040;-78
2021/11/10 04:35:48;;;;;;;19.67;11.27;;;;;;;1.87;100.00;94772.66;5089302;28;20525;-78
2021/11/10 04:38:15;;;;;;;15.15;10.57;;;;;;;1.85;100.00;94771.19;5089695;28;20056;-78
2021/11/10 04:40:44;;;;;;;17.25;10.18;;;;;;;1.86;100.00;94768.53;5089240;28;20574;-77
2021/11/10 04:43:11;;;;;;;13.63;9.75;;;;;;;1.77;100.00;94773.50;5089622;28;20062;-79
2021/11/10 04:45:39;;;;;;;15.13;9.40;;;;;;;1.78;100.00;94778.44;5089688;28;20044;-79
2021/11/10 04:48:06;;;;;;;50.65;25.45;;;;;;;1.79;100.00;94774.16;5089262;28;20048;-78
2021/11/10 04:50:34;;;;;;;25.00;12.52;;;;;;;1.68;100.00;94749.66;5089152;28;20093;-78
2021/11/10 04:53:01;;;;;;;33.05;17.85;;;;;;;1.77;100.00;94773.50;5089103;28;20051;-79
2021/11/10 04:55:29;;;;;;;29.52;16.17;;;;;;;1.78;100.00;94773.38;5089448;28;20040;-79
2021/11/10 04:57:58;;;;;;;211.23;76.80;;;;;;;1.77;100.00;94768.44;5089309;28;20051;-79
2021/11/10 05:00:25;;;;;;;97.28;40.28;;;;;;;1.81;100.00;94774.88;5089158;28;20070;-79
2021/11/10 05:02:52;;;;;;;91.72;40.40;;;;;;;1.69;100.00;94759.69;5089394;28;20070;-78
2021/11/10 05:05:19;;;;;;;100.28;45.65;;;;;;;1.84;100.00;94777.16;5089564;28;20056;-79
2021/11/10 05:07:48;;;;;;;56.42;25.92;;;;;;;1.86;100.00;94773.59;5088925;28;20047;-79
2021/11/10 05:10:15;;;;;;;34.92;17.83;;;;;;;1.85;100.00;94773.72;5089066;28;20057;-78
2021/11/10 05:12:42;;;;;;;30.85;16.92;;;;;;;1.90;100.00;94791.09;5089340;28;20044;-78
2021/11/10 05:15:11;;;;;;;25.13;14.35;;;;;;;1.90;100.00;94786.03;5089416;28;20044;-79
2021/11/10 05:17:38;;;;;;;21.25;12.43;;;;;;;1.86;100.00;94781.19;5088846;28;20415;-79
2021/11/10 05:20:06;;;;;;;20.02;12.57;;;;;;;1.87;100.00;94785.34;5089074;28;20056;-78
2021/11/10 05:22:33;;;;;;;19.75;11.63;;;;;;;1.76;100.00;94779.47;5089064;28;20063;-79
2021/11/10 05:25:00;;;;;;;40.38;25.25;;;;;;;1.59;100.00;94772.22;5089169;28;20044;-79
2021/11/10 05:27:27;;;;;;;28.48;18.65;;;;;;;1.63;100.00;94780.41;5092867;28;20044;-79
2021/11/10 05:29:54;;;;;;;24.23;12.18;;;;;;;1.67;100.00;94781.00;5092922;28;20514;-78
2021/11/10 05:32:22;;;;;;;24.08;11.20;;;;;;;1.65;100.00;94786.16;5093261;28;20052;-78
2021/11/10 05:34:50;;;;;;;19.40;12.15;;;;;;;1.68;100.00;94785.94;5092848;28;20052;-78
2021/11/10 05:37:17;;;;;;;17.15;10.27;;;;;;;1.67;100.00;94781.00;5093311;28;20066;-78
2021/11/10 05:39:44;;;;;;;13.38;8.43;;;;;;;1.68;100.00;94788.47;5092924;28;20113;-78
2021/11/10 05:42:11;;;;;;;19.35;9.57;;;;;;;1.60;100.00;94789.06;5092973;28;20436;-78
2021/11/10 05:44:37;;;;;;;15.02;8.70;;;;;;;1.53;100.00;94789.63;5092600;28;20570;-78
2021/11/10 05:47:04;;;;;;;13.57;8.23;;;;;;;1.51;100.00;94804.94;5092844;28;20048;-78
2021/11/10 05:49:33;;;;;;;15.38;9.50;;;;;;;1.52;100.00;94810.81;5092947;28;20056;-78
2021/11/10 05:52:00;;;;;;;11.23;6.90;;;;;;;1.50;100.00;94815.16;5092725;28;20055;-78
2021/11/10 05:54:27;;;;;;;15.10;8.60;;;;;;;1.43;100.00;94810.56;5092750;28;20055;-78
2021/11/10 05:56:54;;;;;;;27.30;16.10;;;;;;;1.38;100.00;94815.16;5092454;28;20495;-78
2021/11/10 05:59:21;;;;;;;18.25;10.05;;;;;;;1.44;100.00;94809.63;5092840;28;20048;-78
2021/11/10 06:01:48;;;;;;;26.08;13.25;;;;;;;1.50;100.00;94815.97;5092687;28;20054;-80
2021/11/10 06:04:15;;;;;;;23.05;13.32;;;;;;;1.49;100.00;94801.72;5092194;28;20491;-79
2021/11/10 06:06:43;;;;;;;19.77;12.95;;;;;;;1.72;100.00;94827.06;5092484;28;20048;-79
2021/11/10 06:09:10;;;;;;;19.48;11.10;;;;;;;1.83;100.00;94819.44;5092439;28;20059;-79
2021/11/10 06:11:37;;;;;;;26.77;14.40;;;;;;;1.81;100.00;94818.75;5092149;28;20510;-79
2021/11/10 06:14:04;;;;;;;30.10;17.45;;;;;;;1.63;100.00;94780.41;5092129;28;20047;-80
2021/11/10 06:16:30;;;;;;;45.20;22.05;;;;;;;1.89;100.00;94828.31;5091964;28;20419;-79
2021/11/10 06:18:57;;;;;;;44.47;23.63;;;;;;;1.91;100.00;94805.38;5092357;28;20056;-79
2021/11/10 06:21:24;;;;;;;49.67;26.30;;;;;;;2.04;100.00;94825.53;5092045;28;20507;-79
2021/11/10 06:23:52;;;;;;;43.70;22.85;;;;;;;2.05;100.00;94822.91;5092266;28;20048;-79
2021/11/10 06:26:19;;;;;;;35.95;21.67;;;;;;;2.08;100.00;94809.19;5092241;28;20047;-79
2021/11/10 06:28:46;;;;;;;31.67;19.90;;;;;;;2.19;100.00;94823.56;5091784;28;20051;-78
2021/11/10 06:31:12;;;;;;;29.38;19.15;;;;;;;2.26;100.00;94825.50;5092076;28;20063;-78
2021/11/10 06:33:39;;;;;;;121.82;47.55;;;;;;;2.40;100.00;94828.69;5092001;28;20052;-77
2021/11/10 06:36:06;;;;;;;170.20;64.43;;;;;;;2.47;100.00;94821.44;5091794;28;20491;-78
2021/11/10 06:38:34;;;;;;;171.65;69.78;;;;;;;2.59;100.00;94833.16;5090875;28;20104;-78
2021/11/10 06:41:03;;;;;;;150.65;62.92;;;;;;;2.68;100.00;94824.00;5091577;28;20044;-78
2021/11/10 06:43:30;;;;;;;120.53;50.05;;;;;;;2.69;100.00;94809.59;5091886;28;20048;-78
2021/11/10 06:45:57;;;;;;;77.63;34.33;;;;;;;2.89;100.00;94831.69;5091545;28;20048;-78
2021/11/10 06:48:24;;;;;;;48.42;23.83;;;;;;;2.92;100.00;94821.25;5090995;28;20056;-78
2021/11/10 06:50:51;;;;;;;30.23;14.93;;;;;;;3.06;100.00;94819.38;5091731;28;20055;-78
2021/11/10 06:53:18;;;;;;;43.45;19.73;;;;;;;3.09;100.00;94810.72;5091390;28;20044;-78
2021/11/10 06:55:45;;;;;;;30.00;16.95;;;;;;;3.27;100.00;94829.53;5090709;28;20113;-77
2021/11/10 06:58:13;;;;;;;32.15;18.80;;;;;;;3.38;100.00;94831.19;5091393;28;20052;-78
2021/11/10 07:00:40;;;;;;;20.10;13.50;;;;;;;3.40;100.00;94831.88;5091609;28;20116;-78
2021/11/10 07:03:08;;;;;;;53.13;37.15;;;;;;;3.47;100.00;94832.16;5091384;28;20433;-78
2021/11/10 07:05:34;;;;;;;50.30;36.53;;;;;;;3.57;100.00;94840.66;5091525;28;20052;-78
2021/11/10 07:08:01;;;;;;;38.00;22.80;;;;;;;3.60;100.00;94842.13;5091128;28;20048;-78
2021/11/10 07:10:28;;;;;;;44.72;29.48;;;;;;;3.70;100.00;94847.28;5091169;28;20051;-78
2021/11/10 07:12:55;;;;;;;30.30;21.02;;;;;;;3.56;100.00;94846.66;5091547;28;20051;-78
2021/11/10 07:15:24;;;;;;;34.38;21.42;;;;;;;3.58;100.00;94839.75;5090861;28;20121;-78
2021/11/10 07:17:52;;;;;;;30.95;20.15;;;;;;;3.68;100.00;94839.78;5091287;28;20059;-78
2021/11/10 07:20:19;;;;;;;26.90;16.60;;;;;;;3.62;100.00;94817.44;5090980;28;20086;-78
2021/11/10 07:22:46;;;;;;;26.75;16.65;;;;;;;3.94;100.00;94839.34;5091073;28;20498;-78
2021/11/10 07:25:13;;;;;;;27.17;17.17;;;;;;;4.04;100.00;94836.88;5091211;28;20403;-77
2021/11/10 07:27:40;;;;;;;29.15;17.02;;;;;;;3.95;100.00;94807.09;5091383;28;20127;-78
2021/11/10 07:30:09;;;;;;;30.42;16.58;;;;;;;4.29;100.00;94832.25;5090980;28;20044;-78
2021/11/10 07:32:38;;;;;;;27.38;16.13;;;;;;;4.40;100.00;94833.88;5091078;28;20460;-78
2021/11/10 07:35:06;;;;;;;26.83;15.25;;;;;;;4.52;100.00;94829.47;5090962;28;20075;-78
2021/11/10 07:37:33;;;;;;;25.00;13.80;;;;;;;4.72;100.00;94832.84;5090845;28;20052;-78
2021/11/10 07:40:00;;;;;;;21.88;14.43;;;;;;;4.90;100.00;94837.25;5090665;28;20044;-78
2021/11/10 07:42:27;;;;;;;20.63;12.80;;;;;;;5.02;100.00;94838.75;5090785;28;20494;-78
2021/11/10 07:44:58;;;;;;;20.40;12.63;;;;;;;4.97;100.00;94824.81;5090922;28;20048;-79
2021/11/10 07:47:29;;;;;;;19.10;13.75;;;;;;;5.00;100.00;94837.28;5090122;28;20052;-78
2021/11/10 07:49:57;;;;;;;24.58;14.10;;;;;;;4.69;100.00;94812.75;5089645;28;20499;-78
2021/11/10 07:52:24;;;;;;;21.48;13.73;;;;;;;5.01;100.00;94843.97;5090245;28;20048;-79
2021/11/10 07:54:50;;;;;;;20.75;13.20;;;;;;;4.97;100.00;94840.09;5090674;28;20044;-79
2021/11/10 07:57:17;;;;;;;22.98;13.60;;;;;;;5.12;100.00;94837.94;5090456;28;20044;-78
2021/11/10 07:59:44;;;;;;;25.60;13.38;;;;;;;5.12;100.00;94833.66;5090511;28;20415;-78
2021/11/10 08:02:11;;;;;;;21.80;12.55;;;;;;;5.28;100.00;94824.66;5090584;28;20524;-79
2021/11/10 08:04:37;;;;;;;21.23;12.98;;;;;;;5.39;100.00;94821.97;5090254;28;21779;-79
2021/11/10 08:07:06;;;;;;;21.10;12.48;;;;;;;5.51;100.00;94834.53;5089860;28;20055;-79
2021/11/10 08:09:33;;;;;;;18.98;12.32;;;;;;;5.62;100.00;94830.06;5090233;28;20048;-78
2021/11/10 08:11:59;;;;;;;14.35;9.77;;;;;;;5.59;100.00;94825.25;5090211;28;20048;-79
2021/11/10 08:14:29;;;;;;;18.33;12.30;;;;;;;5.66;100.00;94812.78;5089850;28;20048;-78
2021/11/10 08:16:55;;;;;;;16.65;12.13;;;;;;;5.95;100.00;94804.19;5090062;28;20451;-78
2021/11/10 08:19:24;;;;;;;22.10;12.77;;;;;;;6.16;100.00;94810.84;5089724;28;20059;-78
2021/11/10 08:21:52;;;;;;;18.05;12.07;;;;;;;6.39;100.00;94818.91;5090317;28;20071;-78
2021/11/10 08:24:21;;;;;;;22.00;14.88;;;;;;;6.58;100.00;94803.63;5090065;28;20052;-78
2021/11/10 08:26:48;;;;;;;20.60;12.43;;;;;;;6.65;100.00;94797.78;5090244;28;20099;-78
2021/11/10 08:29:15;;;;;;;19.63;10.93;;;;;;;6.67;100.00;94812.97;5090027;28;20055;-78
2021/11/10 08:31:42;;;;;;;25.52;13.05;;;;;;;6.56;100.00;94762.91;5090076;28;20048;-78
2021/11/10 08:34:08;;;;;;;20.80;13.20;;;;;;;6.94;100.00;94801.84;5089789;28;20415;-79
2021/11/10 08:36:35;;;;;;;21.52;11.60;;;;;;;7.06;100.00;94799.06;5089919;28;20048;-80
2021/11/10 08:39:04;;;;;;;16.33;11.32;;;;;;;7.07;100.00;94804.03;5089926;28;20491;-79
2021/11/10 08:41:32;;;;;;;31.67;17.00;;;;;;;6.90;100.00;94808.19;5089086;28;20059;-79
2021/11/10 08:43:59;;;;;;;19.38;11.25;;;;;;;6.98;100.00;94810.03;5089022;28;20044;-78
2021/11/10 08:46:26;;;;;;;17.98;13.13;;;;;;;7.13;100.00;94804.41;5089202;28;20135;-79
2021/11/10 08:48:55;;;;;;;18.13;12.07;;;;;;;7.11;100.00;94802.00;5090054;28;20056;-79
2021/11/10 08:51:23;;;;;;;21.13;12.77;;;;;;;7.33;100.00;94798.13;5089620;28;20056;-79
2021/11/10 08:53:50;;;;;;;18.08;11.55;;;;;;;7.54;100.00;94797.00;5089908;28;20052;-79
2021/11/10 08:56:18;;;;;;;19.20;11.18;;;;;;;7.67;100.00;94795.78;5089922;28;20051;-79
2021/11/10 08:58:46;;;;;;;18.33;11.15;;;;;;;7.02;100.00;94802.88;5089345;28;20052;-80
2021/11/10 09:01:16;;;;;;;18.98;11.45;;;;;;;7.05;100.00;94807.69;5089418;28;20073;-79
2021/11/10 09:03:44;;;;;;;20.05;11.80;;;;;;;6.82;100.00;94791.06;5089710;28;20098;-80
2021/11/10 09:06:11;;;;;;;17.17;10.90;;;;;;;6.82;100.00;94803.81;5089861;28;20052;-79
2021/11/10 09:08:39;;;;;;;18.52;10.27;;;;;;;7.00;100.00;94797.94;5089743;28;20047;-79
2021/11/10 09:11:06;;;;;;;20.88;12.18;;;;;;;7.27;100.00;94790.28;5089581;28;20557;-79
2021/11/10 09:13:33;;;;;;;20.45;10.52;;;;;;;7.41;100.00;94796.59;5101614;28;20498;-80
2021/11/10 09:16:01;;;;;;;18.88;9.52;;;;;;;7.32;98.72;94799.09;5108433;28;20081;-80
2021/11/10 09:18:28;;;;;;;19.38;10.02;;;;;;;7.08;99.76;94774.97;5110056;28;20441;-80
2021/11/10 09:20:55;;;;;;;17.40;9.48;;;;;;;7.29;100.00;94789.19;5109931;28;20047;-80
2021/11/10 09:23:23;;;;;;;18.85;10.73;;;;;;;7.13;100.00;94759.19;5110216;28;20039;-80
2021/11/10 09:25:50;;;;;;;19.17;11.32;;;;;;;7.45;100.00;94777.47;5109436;28;20133;-80
2021/11/10 09:28:19;;;;;;;15.32;8.95;;;;;;;7.79;100.00;94780.97;5109981;28;20490;-80
2021/11/10 09:30:50;;;;;;;15.68;9.38;;;;;;;7.97;99.85;94771.44;5109442;28;20046;-80
2021/11/10 09:33:19;;;;;;;18.83;9.80;;;;;;;7.93;97.99;94759.94;5109623;28;20050;-80
2021/11/10 09:35:46;;;;;;;15.98;9.50;;;;;;;8.24;99.41;94769.63;5109577;28;20099;-79
2021/11/10 09:38:14;;;;;;;14.23;7.53;;;;;;;8.29;94.35;94772.50;5109888;28;20083;-79
2021/11/10 09:40:42;;;;;;;13.80;8.07;;;;;;;8.29;93.47;94772.50;5109387;28;20101;-79
2021/11/10 09:43:10;;;;;;;17.42;7.78;;;;;;;8.62;96.63;94763.31;5109266;28;20054;-79
2021/11/10 09:45:37;;;;;;;11.13;7.32;;;;;;;8.68;93.32;94765.25;5109252;28;20052;-79
2021/11/10 09:48:06;;;;;;;14.40;9.02;;;;;;;8.23;92.49;94762.91;5108968;28;20059;-79
2021/11/10 09:50:39;;;;;;;17.52;10.57;;;;;;;8.41;94.90;94757.66;5109282;28;20124;-79
2021/11/10 09:53:07;;;;;;;10.50;7.20;;;;;;;8.33;93.49;94756.84;5109192;28;20135;-79
2021/11/10 09:55:34;;;;;;;9.98;6.22;;;;;;;8.31;94.65;94743.38;5109656;28;20044;-79
2021/11/10 09:58:02;;;;;;;10.68;6.53;;;;;;;8.35;95.00;94747.25;5109451;28;20048;-80
2021/11/10 10:00:34;;;;;;;8.70;5.63;;;;;;;8.52;92.59;94736.09;5109443;28;20044;-80
2021/11/10 10:03:02;;;;;;;9.20;6.00;;;;;;;8.46;93.23;94744.38;5109461;28;20040;-80
2021/11/10 10:05:31;;;;;;;11.55;6.97;;;;;;;8.74;95.81;94738.19;5109305;28;20048;-79
2021/11/10 10:08:01;;;;;;;11.95;6.55;;;;;;;9.03;96.45;94744.59;5109286;28;20043;-80
2021/11/10 10:10:29;;;;;;;9.25;5.90;;;;;;;9.26;94.38;94734.44;5109236;28;20044;-80
2021/11/10 10:12:59;;;;;;;8.68;5.80;;;;;;;8.82;90.96;94731.31;5110064;28;20055;-80
2021/11/10 10:15:27;;;;;;;9.25;5.93;;;;;;;9.14;89.34;94733.19;5112388;28;20133;-80
2021/11/10 10:17:58;;;;;;;11.63;5.70;;;;;;;9.47;92.97;94728.81;5112572;28;20410;-80
2021/11/10 10:20:28;;;;;;;10.50;5.35;;;;;;;9.63;90.31;94719.47;5112569;28;20071;-80
2021/11/10 10:22:56;;;;;;;8.80;5.72;;;;;;;9.75;89.71;94712.19;5112584;28;20058;-80
2021/11/10 10:25:37;;;;;;;9.88;6.15;;;;;;;9.97;88.74;94718.34;5112147;27;20051;-80
2021/11/10 10:28:05;;;;;;;12.52;7.57;;;;;;;10.25;86.13;94712.75;5112108;28;20104;-80
2021/11/10 10:30:34;;;;;;;8.90;4.85;;;;;;;10.52;88.22;94715.00;5112439;28;20052;-80
2021/11/10 10:33:03;;;;;;;14.07;5.53;;;;;;;10.72;83.96;94710.19;5112111;28;20085;-80
2021/11/10 10:35:33;;;;;;;12.25;5.35;;;;;;;10.89;84.94;94710.88;5112426;27;20430;-80
2021/11/10 10:38:01;;;;;;;7.43;4.93;;;;;;;11.08;84.40;94706.19;5112004;28;20051;-80
2021/11/10 10:40:31;;;;;;;9.68;4.63;;;;;;;11.26;82.32;94702.50;5100881;28;20097;-80
2021/11/10 10:42:58;;;;;;;9.52;4.70;;;;;;;11.08;76.71;94693.34;5091589;28;20051;-80
2021/11/10 10:45:34;;;;;;;8.25;5.00;;;;;;;10.86;76.30;94693.22;5091440;28;20052;-80
2021/11/10 10:48:04;;;;;;;7.78;4.35;;;;;;;10.66;76.27;94698.81;5091762;28;20094;-80
2021/11/10 10:50:33;;;;;;;7.55;4.38;;;;;;;10.78;79.63;94691.50;5091485;28;20044;-80
2021/11/10 10:53:00;;;;;;;6.55;4.40;;;;;;;10.74;81.90;94651.69;5091373;28;20052;-80
2021/11/10 10:55:36;;;;;;;9.63;5.65;;;;;;;11.12;79.54;94680.94;5098846;28;20036;-80
2021/11/10 10:58:06;;;;;;;9.77;4.47;;;;;;;11.37;82.25;94676.31;5100688;28;20101;-80
2021/11/10 11:00:33;;;;;;;10.95;4.70;;;;;;;11.52;77.99;94665.22;5100289;28;20043;-80
2021/11/10 11:03:30;;;;;;;13.30;9.05;;;;;;;11.33;76.32;94675.06;5100702;28;20048;-80
2021/11/10 11:05:57;;;;;;;6.68;4.45;;;;;;;10.89;75.02;94674.88;5100826;28;20048;-80
2021/11/10 11:08:39;;;;;;;8.50;4.78;;;;;;;10.84;76.42;94661.75;5100493;28;20044;-80
2021/11/10 11:11:26;;;;;;;8.13;5.30;;;;;;;10.95;77.79;94655.38;5100496;28;20096;-80
2021/11/10 11:13:56;;;;;;;7.55;4.82;;;;;;;11.17;80.07;94658.84;5100138;28;20056;-80
2021/11/10 11:16:28;;;;;;;8.32;5.50;;;;;;;11.34;81.38;94659.47;5100218;28;20052;-80
2021/11/10 11:19:15;;;;;;;7.60;5.20;;;;;;;11.36;78.53;94633.56;5099951;28;20072;-80
2021/11/10 11:21:54;;;;;;;11.35;5.13;;;;;;;11.08;76.97;94654.78;5100546;28;20561;-80
2021/11/10 11:24:36;;;;;;;10.98;5.30;;;;;;;11.01;78.90;94648.75;5100676;28;20096;-80